UNBB

Barnaul Airport

Barnaul, Russian Federation
TAF UNBB 220200Z 2203/2303 19003G08MPS 9999 BKN020CB TEMPO 2206/2303 23008G15MPS 3100 -SHRA SCT004 BKN011CB
Issued Valid From Valid To
Sep-22 @ 02:00 UTC
(an hour ago)
Sep-22 @ 03:00 UTC
(24 minutes ago)
Sep-23 @ 03:00 UTC
(in 24 hours)
to
to
TAF UNBB 220200Z 2203/2303 19003G08MPS 9999 BKN020CB TEMPO 2206/2303 23008G15MPS 3100 -SHRA SCT004 BKN011CB
Issued Sep-22 @ 02:00 UTC
(an hour ago)
Valid From Sep-22 @ 03:00 UTC
(24 minutes ago)
Valid To Sep-23 @ 03:00 UTC
(in 24 hours)
-
-